Terminal Aerodrome Forecast
Issued by NWS

Home | Current Version | Previous Version | Text Only | Print | Product List | Glossary Off
Versions: 1 2 3 4 5 6 7 8 9 10 11 12 13 14 15 16 17 18 19 20 21 22 23 24 25 26 27 28 29 30 31

000
FTUS43 KLOT 220305 AAA
TAFORD
TAF AMD
KORD 220305Z 2203/2306 09004KT 1/4SM FG OVC002
     FM220800 12007KT 1SM SHRA BR OVC004
      TEMPO 2210/2213 -TSRA BR OVC003CB
     FM221900 17012G18KT 2SM -SHRA BR OVC006=

USA.gov is the U.S. government's official web portal to all federal, state and local government web resources and services.